createdAt,value
2023-02-22T00:02:38.967Z,51.41
2023-02-22T00:07:41.288Z,51.72
2023-02-22T00:12:43.389Z,51.84
2023-02-22T00:17:46.063Z,51.69
2023-02-22T00:22:49.666Z,51.58
2023-02-22T00:27:52.892Z,51.81
2023-02-22T00:32:56.900Z,51.60
2023-02-22T00:38:00.773Z,51.69
2023-02-22T00:43:05.349Z,51.56
2023-02-22T00:48:08.718Z,51.45
2023-02-22T00:53:11.259Z,51.42
2023-02-22T00:58:13.086Z,51.52
2023-02-22T01:03:19.224Z,51.75
2023-02-22T01:08:21.289Z,51.77
2023-02-22T01:13:23.175Z,51.61
2023-02-22T01:18:25.998Z,51.63
2023-02-22T01:23:28.402Z,51.58
2023-02-22T01:28:33.493Z,51.71
2023-02-22T01:33:37.102Z,51.73
2023-02-22T01:38:40.020Z,51.83
2023-02-22T01:43:41.852Z,51.84
2023-02-22T01:48:49.489Z,51.66
2023-02-22T01:54:09.526Z,51.70
2023-02-22T01:59:12.642Z,51.75
2023-02-22T02:04:25.619Z,51.71
2023-02-22T02:09:35.820Z,51.86
2023-02-22T02:14:40.630Z,51.98
2023-02-22T02:20:13.252Z,51.75
2023-02-22T02:25:54.591Z,51.72
2023-02-22T02:31:20.613Z,51.80
2023-02-22T02:36:31.843Z,52.13
2023-02-22T02:41:39.892Z,52.32
2023-02-22T02:46:56.200Z,52.25
2023-02-22T02:51:59.440Z,52.08
2023-02-22T02:57:03.091Z,52.18
2023-02-22T03:02:28.613Z,52.03
2023-02-22T03:08:10.901Z,52.03
2023-02-22T03:13:30.632Z,52.10
2023-02-22T03:18:49.097Z,51.99
2023-02-22T03:24:06.186Z,52.01
2023-02-22T03:29:11.707Z,52.13
2023-02-22T03:34:19.723Z,52.06
2023-02-22T03:39:31.118Z,52.40
2023-02-22T03:44:38.034Z,52.31
2023-02-22T03:49:55.844Z,52.37
2023-02-22T03:54:57.737Z,52.26
2023-02-22T03:59:59.715Z,52.99
2023-02-22T04:05:01.836Z,52.61
2023-02-22T04:10:04.726Z,52.62
2023-02-22T04:15:09.427Z,52.85
2023-02-22T04:20:13.719Z,53.35
2023-02-22T04:25:29.993Z,53.61
2023-02-22T04:30:32.422Z,53.49
2023-02-22T04:35:35.761Z,53.37
2023-02-22T04:40:39.004Z,53.64
2023-02-22T04:45:41.863Z,53.30
2023-02-22T04:50:44.296Z,53.28
2023-02-22T04:55:46.399Z,53.38
2023-02-22T05:00:48.204Z,53.55
2023-02-22T05:05:52.410Z,53.51
2023-02-22T05:10:54.807Z,53.47
2023-02-22T05:15:56.686Z,53.38
2023-02-22T05:20:58.437Z,53.53
2023-02-22T05:26:00.676Z,53.37
2023-02-22T05:31:02.483Z,53.88
2023-02-22T05:36:04.452Z,54.26
2023-02-22T05:41:06.145Z,54.20
2023-02-22T05:46:08.325Z,54.63
2023-02-22T05:51:10.759Z,54.63
2023-02-22T05:56:12.534Z,54.09
2023-02-22T06:01:14.265Z,53.75
2023-02-22T06:06:17.778Z,53.48
2023-02-22T06:11:19.982Z,53.83
2023-02-22T06:16:22.729Z,53.76
2023-02-22T06:21:24.493Z,53.51
2023-02-22T06:26:26.285Z,54.04
2023-02-22T06:31:28.088Z,53.88
2023-02-22T06:36:30.546Z,54.00
2023-02-22T06:41:32.324Z,53.42
2023-02-22T06:46:34.209Z,53.49
2023-02-22T06:51:37.625Z,54.11
2023-02-22T06:56:39.521Z,54.06
2023-02-22T07:06:59.234Z,54.05
2023-02-22T07:12:01.020Z,53.98
2023-02-22T07:17:03.382Z,53.91
2023-02-22T07:22:06.218Z,53.70
2023-02-22T07:27:07.976Z,53.76
2023-02-22T07:32:10.363Z,53.70
2023-02-22T07:37:12.154Z,53.99
2023-02-22T07:42:13.962Z,53.85
2023-02-22T07:47:16.048Z,53.67
2023-02-22T07:52:18.043Z,53.72
2023-02-22T07:57:19.783Z,53.70
2023-02-22T08:02:21.770Z,53.65
2023-02-22T08:07:23.539Z,53.63
2023-02-22T08:12:25.339Z,53.77
2023-02-22T08:17:27.099Z,53.88
2023-02-22T08:22:29.203Z,53.85
2023-02-22T08:27:31.312Z,53.93
2023-02-22T08:32:33.511Z,53.86
2023-02-22T08:37:35.408Z,53.68
2023-02-22T08:42:37.206Z,53.86
2023-02-22T08:47:39.183Z,53.85
2023-02-22T08:52:40.922Z,53.81
2023-02-22T08:57:42.670Z,53.79
2023-02-22T09:02:44.694Z,53.56
2023-02-22T09:07:46.496Z,53.65
2023-02-22T09:12:48.276Z,53.62
2023-02-22T09:17:50.238Z,53.29
2023-02-22T09:22:53.174Z,53.13
2023-02-22T09:27:56.166Z,53.09
2023-02-22T09:33:04.266Z,53.08
2023-02-22T09:38:06.564Z,53.17
2023-02-22T09:43:41.703Z,52.79
2023-02-22T09:49:05.502Z,52.82
2023-02-22T09:54:17.669Z,52.76
2023-02-22T09:59:30.115Z,52.57
2023-02-22T10:04:34.934Z,52.55
2023-02-22T10:09:42.887Z,52.45
2023-02-22T10:15:04.837Z,52.33
2023-02-22T10:20:06.846Z,52.35
2023-02-22T10:25:21.786Z,52.23
2023-02-22T10:30:54.801Z,52.02
2023-02-22T10:35:56.797Z,51.77
2023-02-22T10:41:10.851Z,51.82
2023-02-22T10:46:17.807Z,51.11
2023-02-22T10:51:20.753Z,51.22
2023-02-22T10:56:25.476Z,51.22
2023-02-22T11:01:35.407Z,50.90
2023-02-22T11:06:38.074Z,50.97
2023-02-22T11:11:42.755Z,50.59
2023-02-22T11:16:52.726Z,50.50
2023-02-22T11:22:22.569Z,50.59
2023-02-22T11:27:40.511Z,50.61
2023-02-22T11:32:53.741Z,50.38
2023-02-22T11:38:17.089Z,49.86
2023-02-22T11:43:20.645Z,49.85
2023-02-22T11:48:23.329Z,50.00
2023-02-22T11:53:34.364Z,49.72
2023-02-22T11:59:36.810Z,49.61
2023-02-22T12:05:03.109Z,49.43
2023-02-22T12:10:25.191Z,49.55
2023-02-22T12:15:29.961Z,49.51
2023-02-22T12:20:45.615Z,49.26
2023-02-22T12:25:58.831Z,48.86
2023-02-22T12:36:56.694Z,49.03
2023-02-22T12:42:02.068Z,48.55
2023-02-22T12:47:07.864Z,48.82
2023-02-22T12:52:46.796Z,48.73
2023-02-22T12:57:51.284Z,48.51
2023-02-22T13:03:04.763Z,48.38
2023-02-22T13:08:06.460Z,48.46
2023-02-22T13:13:11.277Z,48.40
2023-02-22T13:24:03.654Z,48.39
2023-02-22T13:29:13.872Z,47.98
2023-02-22T13:34:40.880Z,48.24
2023-02-22T13:39:57.770Z,47.93
2023-02-22T13:45:16.554Z,48.15
2023-02-22T13:50:33.353Z,48.21
2023-02-22T13:55:38.210Z,47.92
2023-02-22T14:00:52.674Z,48.11
2023-02-22T14:05:57.268Z,48.18
2023-02-22T14:11:20.108Z,48.13
2023-02-22T14:16:25.206Z,48.15
2023-02-22T14:21:27.023Z,47.76
2023-02-22T14:26:34.813Z,48.06
2023-02-22T14:31:46.644Z,47.74
2023-02-22T14:37:07.771Z,47.84
2023-02-22T14:42:24.260Z,47.92
2023-02-22T14:47:39.986Z,47.96
2023-02-22T14:52:46.698Z,47.74
2023-02-22T15:03:22.393Z,47.94
2023-02-22T15:08:28.390Z,47.88
2023-02-22T15:13:33.188Z,47.51
2023-02-22T15:18:43.480Z,47.43
2023-02-22T15:23:49.064Z,47.64
2023-02-22T15:28:55.800Z,47.29
2023-02-22T15:33:57.933Z,47.57
2023-02-22T15:44:28.992Z,47.60
2023-02-22T15:49:38.031Z,47.85
2023-02-22T15:54:44.222Z,47.56
2023-02-22T15:59:53.045Z,47.94
2023-02-22T16:05:01.837Z,48.00
2023-02-22T16:10:09.304Z,48.09
2023-02-22T16:15:17.216Z,48.24
2023-02-22T16:20:22.152Z,48.15
2023-02-22T16:25:31.197Z,48.23
2023-02-22T16:30:36.609Z,48.19
2023-02-22T16:35:38.563Z,48.23
2023-02-22T16:40:46.255Z,48.59
2023-02-22T16:45:48.513Z,48.51
2023-02-22T16:50:52.176Z,48.63
2023-02-22T16:56:00.815Z,48.91
2023-02-22T17:01:03.284Z,48.93
2023-02-22T17:06:05.391Z,48.75
2023-02-22T17:11:08.432Z,49.17
2023-02-22T17:16:16.997Z,49.11
2023-02-22T17:21:19.097Z,49.21
2023-02-22T17:26:20.911Z,49.26
2023-02-22T17:31:26.935Z,49.19
2023-02-22T17:36:30.066Z,49.38
2023-02-22T17:41:57.876Z,49.10
2023-02-22T17:47:24.770Z,49.51
2023-02-22T17:52:30.229Z,49.52
2023-02-22T17:57:32.530Z,49.47
2023-02-22T18:02:34.656Z,49.28
2023-02-22T18:07:36.898Z,49.42
2023-02-22T18:12:39.895Z,49.54
2023-02-22T18:17:41.647Z,49.43
2023-02-22T18:22:44.385Z,49.79
2023-02-22T18:27:46.142Z,49.58
2023-02-22T18:32:47.971Z,49.76
2023-02-22T18:38:25.595Z,49.92
2023-02-22T18:43:28.216Z,49.84
2023-02-22T18:48:29.957Z,49.88
2023-02-22T18:53:32.337Z,50.14
2023-02-22T18:58:35.095Z,50.05
2023-02-22T19:03:38.348Z,49.96
2023-02-22T19:08:42.646Z,50.29
2023-02-22T19:13:48.355Z,50.84
2023-02-22T19:18:52.510Z,51.94
2023-02-22T19:23:54.439Z,52.00
2023-02-22T19:28:58.600Z,52.15
2023-02-22T19:34:09.161Z,52.24
2023-02-22T19:39:11.744Z,52.28
2023-02-22T19:44:13.844Z,51.99
2023-02-22T19:49:16.298Z,52.29
2023-02-22T19:54:21.324Z,52.40
2023-02-22T19:59:23.666Z,52.35
2023-02-22T20:04:25.757Z,52.61
2023-02-22T20:09:43.243Z,52.56
2023-02-22T20:14:46.381Z,51.46
2023-02-22T20:19:48.948Z,52.10
2023-02-22T20:24:52.258Z,52.71
2023-02-22T20:30:25.646Z,52.09
2023-02-22T20:35:27.970Z,51.52
2023-02-22T20:40:29.719Z,51.13
2023-02-22T20:45:32.308Z,50.94
2023-02-22T20:50:35.621Z,50.51
2023-02-22T20:55:37.407Z,50.82
2023-02-22T21:00:39.170Z,51.21
2023-02-22T21:05:45.423Z,51.16
2023-02-22T21:10:48.306Z,51.04
2023-02-22T21:15:52.707Z,51.08
2023-02-22T21:20:54.517Z,50.73
2023-02-22T21:26:03.560Z,51.03
2023-02-22T21:31:08.055Z,51.34
2023-02-22T21:36:13.579Z,51.37
2023-02-22T21:41:17.159Z,51.63
2023-02-22T21:46:19.724Z,52.88
2023-02-22T21:51:25.479Z,52.04
2023-02-22T21:56:28.945Z,52.40
2023-02-22T22:01:36.643Z,52.03
2023-02-22T22:06:38.395Z,51.99
2023-02-22T22:11:40.134Z,52.57
2023-02-22T22:16:41.900Z,52.28
2023-02-22T22:21:44.022Z,51.78
2023-02-22T22:26:45.808Z,52.57
2023-02-22T22:31:47.766Z,52.47
2023-02-22T22:36:49.774Z,52.72
2023-02-22T22:41:52.198Z,52.56
2023-02-22T22:46:54.934Z,53.03
2023-02-22T22:51:56.710Z,53.26
2023-02-22T22:56:58.691Z,53.81
2023-02-22T23:02:03.125Z,53.64
2023-02-22T23:07:06.666Z,53.67
2023-02-22T23:12:16.941Z,54.00
2023-02-22T23:17:31.282Z,54.19
2023-02-22T23:22:33.347Z,53.93
2023-02-22T23:27:35.216Z,53.86
2023-02-22T23:32:37.028Z,54.20
2023-02-22T23:37:39.979Z,53.85
2023-02-22T23:42:42.148Z,53.67
2023-02-22T23:47:43.966Z,54.86
2023-02-22T23:52:46.347Z,54.26
2023-02-22T23:57:48.173Z,54.39
